Time,TemperatureF,DewpointF,PressureIn,WindDirection,WindDirectionDegrees,WindSpeedMPH,WindSpeedGustMPH,Humidity,HourlyPrecipIn,Conditions,Clouds,dailyrainin,SoftwareType,DateUTC
2013-11-21 00:00:00,28.9,20.4,30.36,South,186,5.8,5.8,70,0.00,CLR,,0.00,WeatherDisplay:10.37,2013-11-21 05:00:00,
2013-11-21 00:01:00,28.9,20.4,30.36,SE,139,5.8,5.8,70,0.00,CLR,,0.00,WeatherDisplay:10.37,2013-11-21 05:01:00,
2013-11-21 00:02:00,28.9,20.4,30.36,SSE,152,9.6,9.6,70,0.00,CLR,,0.00,WeatherDisplay:10.37,2013-11-21 05:02:00,
2013-11-21 00:07:00,29.1,20.6,30.36,South,177,7.6,7.6,70,0.00,CLR,,0.00,WeatherDisplay:10.37,2013-11-21 05:07:00,
2013-11-21 00:12:00,29.3,20.7,30.36,SSW,192,10.4,10.4,70,0.00,CLR,,0.00,WeatherDisplay:10.37,2013-11-21 05:12:00,
2013-11-21 00:17:00,29.3,20.7,30.36,SSW,204,5.8,5.8,70,0.00,CLR,,0.00,WeatherDisplay:10.37,2013-11-21 05:17:00,
2013-11-21 00:22:00,29.5,20.9,30.36,SSW,204,8.1,8.1,70,0.00,CLR,,0.00,WeatherDisplay:10.37,2013-11-21 05:22:00,
2013-11-21 00:27:00,29.3,20.7,30.36,SSE,151,8.0,8.0,70,0.00,CLR,,0.00,WeatherDisplay:10.37,2013-11-21 05:27:00,
2013-11-21 00:32:00,29.1,20.6,30.36,SSE,165,12.7,12.7,70,0.00,CLR,,0.00,WeatherDisplay:10.37,2013-11-21 05:32:00,
2013-11-21 00:37:00,29.1,20.6,30.36,South,170,8.1,8.1,70,0.00,CLR,,0.00,WeatherDisplay:10.37,2013-11-21 05:37:00,
2013-11-21 00:42:00,29.3,21.7,30.36,South,176,12.7,12.7,73,0.00,CLR,,0.00,WeatherDisplay:10.37,2013-11-21 05:42:00,
2013-11-21 00:47:00,29.3,21.7,30.36,SSE,168,10.4,10.4,73,0.00,CLR,,0.00,WeatherDisplay:10.37,2013-11-21 05:47:00,
2013-11-21 00:52:00,29.5,21.9,30.36,SE,132,10.4,10.4,73,0.00,CLR,,0.00,WeatherDisplay:10.37,2013-11-21 05:52:00,
2013-11-21 00:57:00,29.5,21.9,30.36,SSW,203,10.4,10.4,73,0.00,CLR,,0.00,WeatherDisplay:10.37,2013-11-21 05:57:00,
2013-11-21 01:02:00,29.3,21.7,30.36,South,185,12.7,12.7,73,0.00,CLR,,0.00,WeatherDisplay:10.37,2013-11-21 06:02:00,
2013-11-21 01:07:00,29.3,21.7,30.36,ESE,118,10.4,10.4,73,0.00,CLR,,0.00,WeatherDisplay:10.37,2013-11-21 06:07:00,
2013-11-21 01:12:00,29.1,21.5,30.36,SSW,205,11.5,11.5,73,0.00,CLR,,0.00,WeatherDisplay:10.37,2013-11-21 06:12:00,
2013-11-21 01:17:00,28.9,21.4,30.36,South,171,6.9,6.9,73,0.00,CLR,,0.00,WeatherDisplay:10.37,2013-11-21 06:17:00,
2013-11-21 01:22:00,29.1,21.5,30.36,SE,131,12.7,12.7,73,0.00,CLR,,0.00,WeatherDisplay:10.37,2013-11-21 06:22:00,
2013-11-21 01:27:00,29.1,21.5,30.36,SSE,157,11.5,11.5,73,0.00,CLR,,0.00,WeatherDisplay:10.37,2013-11-21 06:27:00,
2013-11-21 01:32:00,28.9,21.4,30.36,South,190,8.1,8.1,73,0.00,CLR,,0.00,WeatherDisplay:10.37,2013-11-21 06:32:00,
2013-11-21 01:37:00,28.6,21.0,30.36,SE,135,5.8,5.8,73,0.00,CLR,,0.00,WeatherDisplay:10.37,2013-11-21 06:37:00,
2013-11-21 01:42:00,28.4,20.8,30.36,SE,143,5.8,5.8,73,0.00,CLR,,0.00,WeatherDisplay:10.37,2013-11-21 06:42:00,
2013-11-21 01:47:00,27.9,20.3,30.36,SSE,151,5.8,5.8,73,0.00,CLR,,0.00,WeatherDisplay:10.37,2013-11-21 06:47:00,
2013-11-21 01:52:00,27.5,20.0,30.36,ESE,119,8.1,8.1,73,0.00,CLR,,0.00,WeatherDisplay:10.37,2013-11-21 06:52:00,
2013-11-21 01:57:00,27.1,19.6,30.36,SSE,161,5.8,5.8,73,0.00,CLR,,0.00,WeatherDisplay:10.37,2013-11-21 06:57:00,
2013-11-21 02:02:00,27.0,19.5,30.36,SSE,147,8.1,8.1,73,0.00,CLR,,0.00,WeatherDisplay:10.37,2013-11-21 07:02:00,
2013-11-21 02:07:00,27.3,20.8,30.36,SSE,156,11.5,11.5,76,0.00,CLR,,0.00,WeatherDisplay:10.37,2013-11-21 07:07:00,
2013-11-21 02:12:00,27.9,21.3,30.36,SE,126,5.8,5.8,76,0.00,CLR,,0.00,WeatherDisplay:10.37,2013-11-21 07:12:00,
2013-11-21 02:17:00,27.9,21.3,30.36,SSE,160,11.5,11.5,76,0.00,CLR,,0.00,WeatherDisplay:10.37,2013-11-21 07:17:00,
2013-11-21 02:22:00,28.2,21.6,30.36,SSE,161,9.2,9.2,76,0.00,CLR,,0.00,WeatherDisplay:10.37,2013-11-21 07:22:00,
2013-11-21 02:27:00,28.4,22.1,30.36,ESE,120,9.2,9.2,77,0.00,CLR,,0.00,WeatherDisplay:10.37,2013-11-21 07:27:00,
2013-11-21 02:32:00,28.2,21.9,30.36,SSE,160,5.8,5.8,77,0.00,CLR,,0.00,WeatherDisplay:10.37,2013-11-21 07:32:00,
2013-11-21 02:37:00,28.2,21.9,30.36,South,173,10.4,10.4,77,0.00,CLR,,0.00,WeatherDisplay:10.37,2013-11-21 07:37:00,
2013-11-21 02:42:00,28.2,21.9,30.36,SE,128,8.3,8.3,77,0.00,CLR,,0.00,WeatherDisplay:10.37,2013-11-21 07:42:00,
2013-11-21 02:47:00,28.2,21.9,30.36,South,190,8.1,8.1,77,0.00,CLR,,0.00,WeatherDisplay:10.37,2013-11-21 07:47:00,
2013-11-21 02:52:00,28.0,21.8,30.36,South,181,3.5,3.5,77,0.00,CLR,,0.00,WeatherDisplay:10.37,2013-11-21 07:52:00,
2013-11-21 02:57:00,28.0,21.8,30.36,SE,143,8.1,8.1,77,0.00,CLR,,0.00,WeatherDisplay:10.37,2013-11-21 07:57:00,
2013-11-21 03:02:00,27.9,21.6,30.36,South,170,8.1,8.1,77,0.00,CLR,,0.00,WeatherDisplay:10.37,2013-11-21 08:02:00,
2013-11-21 03:07:00,27.9,21.6,30.36,South,173,9.2,9.2,77,0.00,CLR,,0.00,WeatherDisplay:10.37,2013-11-21 08:07:00,
2013-11-21 03:12:00,27.9,21.6,30.36,SE,144,5.8,5.8,77,0.00,CLR,,0.00,WeatherDisplay:10.37,2013-11-21 08:12:00,
2013-11-21 03:17:00,28.2,21.9,30.36,SSE,161,10.1,10.1,77,0.00,CLR,,0.00,WeatherDisplay:10.37,2013-11-21 08:17:00,
2013-11-21 03:22:00,28.2,21.9,30.36,SSW,196,8.1,8.1,77,0.00,CLR,,0.00,WeatherDisplay:10.37,2013-11-21 08:22:00,
2013-11-21 03:27:00,28.2,22.8,30.36,West,264,8.1,8.1,80,0.00,CLR,,0.00,WeatherDisplay:10.37,2013-11-21 08:27:00,
2013-11-21 03:32:00,28.2,22.8,30.36,SSW,196,8.1,8.1,80,0.00,CLR,,0.00,WeatherDisplay:10.37,2013-11-21 08:32:00,
2013-11-21 03:37:00,28.4,23.0,30.39,South,179,5.8,5.8,80,0.00,CLR,,0.00,WeatherDisplay:10.37,2013-11-21 08:37:00,
2013-11-21 03:42:00,28.4,23.0,30.39,South,171,5.8,5.8,80,0.00,CLR,,0.00,WeatherDisplay:10.37,2013-11-21 08:42:00,
2013-11-21 03:47:00,28.2,22.8,30.39,South,185,8.1,8.1,80,0.00,CLR,,0.00,WeatherDisplay:10.37,2013-11-21 08:47:00,
2013-11-21 03:52:00,27.9,22.5,30.39,SSE,148,5.8,5.8,80,0.00,CLR,,0.00,WeatherDisplay:10.37,2013-11-21 08:52:00,
2013-11-21 03:57:00,27.7,22.3,30.39,South,169,5.8,5.8,80,0.00,CLR,,0.00,WeatherDisplay:10.37,2013-11-21 08:57:00,
2013-11-21 04:02:00,27.3,22.0,30.39,South,190,9.2,9.2,80,0.00,CLR,,0.00,WeatherDisplay:10.37,2013-11-21 09:02:00,
2013-11-21 04:07:00,27.1,21.8,30.36,SE,139,8.0,8.0,80,0.00,CLR,,0.00,WeatherDisplay:10.37,2013-11-21 09:07:00,
2013-11-21 04:12:00,27.1,21.8,30.36,SSE,153,8.1,8.1,80,0.00,CLR,,0.00,WeatherDisplay:10.37,2013-11-21 09:12:00,
2013-11-21 04:17:00,27.3,22.3,30.36,SSE,163,4.6,4.6,81,0.00,CLR,,0.00,WeatherDisplay:10.37,2013-11-21 09:17:00,
2013-11-21 04:22:00,27.5,22.4,30.36,South,172,10.4,10.4,81,0.00,CLR,,0.00,WeatherDisplay:10.37,2013-11-21 09:22:00,
2013-11-21 04:27:00,27.5,22.4,30.36,SSE,150,5.8,5.8,81,0.00,CLR,,0.00,WeatherDisplay:10.37,2013-11-21 09:27:00,
2013-11-21 04:32:00,27.3,22.3,30.36,South,177,3.5,3.5,81,0.00,CLR,,0.00,WeatherDisplay:10.37,2013-11-21 09:32:00,
2013-11-21 04:37:00,27.0,21.9,30.36,SSE,162,3.5,3.5,81,0.00,CLR,,0.00,WeatherDisplay:10.37,2013-11-21 09:37:00,
2013-11-21 04:42:00,26.6,21.6,30.36,South,190,3.6,3.6,81,0.00,CLR,,0.00,WeatherDisplay:10.37,2013-11-21 09:42:00,
2013-11-21 04:47:00,26.4,21.7,30.36,SSE,162,6.3,0.0,82,0.00,CLR,,0.00,WeatherDisplay:10.37,2013-11-21 09:47:00,
2013-11-21 04:52:00,26.2,21.5,30.39,SSW,194,5.8,5.8,82,0.00,CLR,,0.00,WeatherDisplay:10.37,2013-11-21 09:52:00,
2013-11-21 04:57:00,26.4,21.7,30.39,SSE,161,3.6,0.0,82,0.00,CLR,,0.00,WeatherDisplay:10.37,2013-11-21 09:57:00,
2013-11-21 05:02:00,26.8,22.0,30.39,SSE,164,5.8,5.8,82,0.00,CLR,,0.00,WeatherDisplay:10.37,2013-11-21 10:02:00,
2013-11-21 05:07:00,26.8,22.0,30.36,South,182,5.8,5.8,82,0.00,CLR,,0.00,WeatherDisplay:10.37,2013-11-21 10:07:00,
2013-11-21 05:12:00,27.0,22.2,30.36,South,181,5.8,5.8,82,0.00,CLR,,0.00,WeatherDisplay:10.37,2013-11-21 10:12:00,
2013-11-21 05:17:00,26.8,22.0,30.36,SE,133,8.3,8.3,82,0.00,CLR,,0.00,WeatherDisplay:10.37,2013-11-21 10:17:00,
2013-11-21 05:22:00,27.0,22.2,30.36,SE,139,6.9,6.9,82,0.00,CLR,,0.00,WeatherDisplay:10.37,2013-11-21 10:22:00,
2013-11-21 05:27:00,27.1,22.7,30.36,SE,144,9.2,9.2,83,0.00,CLR,,0.00,WeatherDisplay:10.37,2013-11-21 10:27:00,
2013-11-21 05:32:00,27.3,23.4,30.36,South,178,8.7,8.7,85,0.00,CLR,,0.00,WeatherDisplay:10.37,2013-11-21 10:32:00,
2013-11-21 05:37:00,27.5,23.6,30.36,SE,141,9.2,9.2,85,0.00,CLR,,0.00,WeatherDisplay:10.37,2013-11-21 10:37:00,
2013-11-21 05:42:00,27.5,23.6,30.36,South,169,5.8,5.8,85,0.00,CLR,,0.00,WeatherDisplay:10.37,2013-11-21 10:42:00,
2013-11-21 05:47:00,27.5,23.6,30.36,South,171,5.8,5.8,85,0.00,CLR,,0.00,WeatherDisplay:10.37,2013-11-21 10:47:00,
2013-11-21 05:52:00,27.5,23.6,30.36,SE,126,5.8,5.8,85,0.00,CLR,,0.00,WeatherDisplay:10.37,2013-11-21 10:52:00,
2013-11-21 05:57:00,27.3,23.4,30.36,South,175,3.5,3.5,85,0.00,CLR,,0.00,WeatherDisplay:10.37,2013-11-21 10:57:00,
2013-11-21 06:02:00,27.0,23.1,30.36,SSE,155,4.6,4.6,85,0.00,CLR,,0.00,WeatherDisplay:10.37,2013-11-21 11:02:00,
2013-11-21 06:07:00,27.0,23.3,30.36,SE,130,4.6,4.6,86,0.00,CLR,,0.00,WeatherDisplay:10.37,2013-11-21 11:07:00,
2013-11-21 06:12:00,26.8,22.9,30.36,SSE,168,4.6,4.6,85,0.00,CLR,,0.00,WeatherDisplay:10.37,2013-11-21 11:12:00,
2013-11-21 06:17:00,26.6,23.0,30.36,SW,225,3.5,0.0,86,0.00,CLR,,0.00,WeatherDisplay:10.37,2013-11-21 11:17:00,
2013-11-21 06:22:00,26.4,23.1,30.36,SSW,195,0.0,0.0,87,0.00,CLR,,0.00,WeatherDisplay:10.37,2013-11-21 11:22:00,
2013-11-21 06:27:00,26.1,22.7,30.36,SSE,155,0.0,0.0,87,0.00,CLR,,0.00,WeatherDisplay:10.37,2013-11-21 11:27:00,
2013-11-21 06:33:00,26.1,22.7,30.36,SSW,201,0.0,0.0,87,0.00,CLR,,0.00,WeatherDisplay:10.37,2013-11-21 11:33:00,
2013-11-21 06:38:00,26.1,22.7,30.39,SSW,201,0.0,0.0,87,0.00,CLR,,0.00,WeatherDisplay:10.37,2013-11-21 11:38:00,
2013-11-21 06:43:00,25.7,22.4,30.39,SSE,156,3.6,0.0,87,0.00,CLR,,0.00,WeatherDisplay:10.37,2013-11-21 11:43:00,
2013-11-21 06:48:00,25.9,22.8,30.39,ESE,117,5.8,5.8,88,0.00,CLR,,0.00,WeatherDisplay:10.37,2013-11-21 11:48:00,
2013-11-21 06:53:00,25.7,22.6,30.36,South,180,4.6,4.6,88,0.00,CLR,,0.00,WeatherDisplay:10.37,2013-11-21 11:53:00,
2013-11-21 06:58:00,25.5,22.5,30.36,SSE,157,4.9,4.9,88,0.00,CLR,,0.00,WeatherDisplay:10.37,2013-11-21 11:58:00,
2013-11-21 07:03:00,25.5,22.5,30.36,SSE,168,4.6,4.6,88,0.00,CLR,,0.00,WeatherDisplay:10.37,2013-11-21 12:03:00,
2013-11-21 07:08:00,25.5,22.5,30.36,SE,146,5.8,5.8,88,0.00,CLR,,0.00,WeatherDisplay:10.37,2013-11-21 12:08:00,
2013-11-21 07:13:00,25.5,22.5,30.36,South,181,5.8,5.8,88,0.00,CLR,,0.00,WeatherDisplay:10.37,2013-11-21 12:13:00,
2013-11-21 07:18:00,25.5,22.5,30.36,South,175,2.3,2.3,88,0.00,CLR,,0.00,WeatherDisplay:10.37,2013-11-21 12:18:00,
2013-11-21 07:23:00,25.5,22.7,30.39,SSW,197,3.5,3.5,89,0.00,CLR,,0.00,WeatherDisplay:10.37,2013-11-21 12:23:00,
2013-11-21 07:28:00,25.3,22.6,30.39,SSE,150,3.5,0.0,89,0.00,CLR,,0.00,WeatherDisplay:10.37,2013-11-21 12:28:00,
2013-11-21 07:33:00,25.3,22.6,30.39,SE,137,3.5,0.0,89,0.00,CLR,,0.00,WeatherDisplay:10.37,2013-11-21 12:33:00,
2013-11-21 07:38:00,25.5,22.7,30.39,South,169,3.5,3.5,89,0.00,CLR,,0.00,WeatherDisplay:10.37,2013-11-21 12:38:00,
2013-11-21 07:43:00,25.9,23.1,30.39,SSW,197,5.8,5.8,89,0.00,CLR,,0.00,WeatherDisplay:10.37,2013-11-21 12:43:00,
2013-11-21 07:48:00,26.6,23.8,30.39,WSW,239,3.5,3.5,89,0.00,CLR,,0.00,WeatherDisplay:10.37,2013-11-21 12:48:00,
2013-11-21 07:53:00,27.1,24.3,30.39,SSW,211,4.6,0.0,89,0.00,CLR,,0.00,WeatherDisplay:10.37,2013-11-21 12:53:00,
2013-11-21 07:58:00,27.3,24.5,30.39,SW,222,5.8,5.8,89,0.00,CLR,,0.00,WeatherDisplay:10.37,2013-11-21 12:58:00,
2013-11-21 08:03:00,27.9,25.0,30.39,SSW,202,9.2,9.2,89,0.00,CLR,,0.00,WeatherDisplay:10.37,2013-11-21 13:03:00,
2013-11-21 08:08:00,28.6,26.0,30.39,South,191,9.2,9.2,90,0.00,CLR,,0.00,WeatherDisplay:10.37,2013-11-21 13:08:00,
2013-11-21 08:13:00,29.7,27.1,30.39,South,180,8.1,8.1,90,0.00,CLR,,0.00,WeatherDisplay:10.37,2013-11-21 13:13:00,
2013-11-21 08:18:00,30.4,27.8,30.39,ESE,102,8.1,8.1,90,0.00,CLR,,0.00,WeatherDisplay:10.37,2013-11-21 13:18:00,
2013-11-21 08:23:00,30.7,28.2,30.39,SE,127,5.8,5.8,90,0.00,CLR,,0.00,WeatherDisplay:10.37,2013-11-21 13:23:00,
2013-11-21 08:28:00,31.1,28.5,30.39,SSE,166,5.8,5.8,90,0.00,CLR,,0.00,WeatherDisplay:10.37,2013-11-21 13:28:00,
2013-11-21 08:33:00,31.1,28.5,30.39,ESE,118,5.8,5.8,90,0.00,CLR,,0.00,WeatherDisplay:10.37,2013-11-21 13:33:00,
2013-11-21 08:38:00,31.5,28.9,30.36,SE,140,5.8,5.8,90,0.00,CLR,,0.00,WeatherDisplay:10.37,2013-11-21 13:38:00,
2013-11-21 08:43:00,31.8,29.2,30.36,SE,145,4.0,4.0,90,0.00,CLR,,0.00,WeatherDisplay:10.37,2013-11-21 13:43:00,
2013-11-21 08:48:00,32.0,29.4,30.36,SSE,168,4.0,4.0,90,0.00,CLR,,0.00,WeatherDisplay:10.37,2013-11-21 13:48:00,
2013-11-21 08:53:00,32.0,29.1,30.39,SSE,151,4.6,4.6,89,0.00,CLR,,0.00,WeatherDisplay:10.37,2013-11-21 13:53:00,
2013-11-21 08:58:00,32.2,29.3,30.39,SSE,168,3.5,0.0,89,0.00,CLR,,0.00,WeatherDisplay:10.37,2013-11-21 13:58:00,
2013-11-21 09:03:00,32.2,29.3,30.39,SSW,209,2.3,0.0,89,0.00,CLR,,0.00,WeatherDisplay:10.37,2013-11-21 14:03:00,
2013-11-21 09:08:00,32.4,29.5,30.39,SSE,157,5.8,5.8,89,0.00,CLR,,0.00,WeatherDisplay:10.37,2013-11-21 14:08:00,
2013-11-21 09:13:00,32.5,29.7,30.39,SSE,154,4.6,4.6,89,0.00,CLR,,0.00,WeatherDisplay:10.37,2013-11-21 14:13:00,
2013-11-21 09:18:00,32.7,29.8,30.39,SSE,162,4.9,4.9,89,0.00,CLR,,0.00,WeatherDisplay:10.37,2013-11-21 14:18:00,
2013-11-21 09:23:00,32.7,29.8,30.39,SE,140,8.1,8.1,89,0.00,CLR,,0.00,WeatherDisplay:10.37,2013-11-21 14:23:00,
2013-11-21 09:28:00,32.9,29.7,30.39,South,181,5.8,5.8,88,0.00,CLR,,0.00,WeatherDisplay:10.37,2013-11-21 14:28:00,
2013-11-21 09:33:00,33.1,29.9,30.39,SE,129,3.5,3.5,88,0.00,CLR,,0.00,WeatherDisplay:10.37,2013-11-21 14:33:00,
2013-11-21 09:38:00,33.1,29.9,30.39,South,180,9.2,9.2,88,0.00,CLR,,0.00,WeatherDisplay:10.37,2013-11-21 14:38:00,
2013-11-21 09:43:00,33.3,30.1,30.39,SSE,157,5.8,5.8,88,0.00,CLR,,0.00,WeatherDisplay:10.37,2013-11-21 14:43:00,
2013-11-21 09:48:00,33.3,29.8,30.39,South,186,3.5,4.5,87,0.00,CLR,,0.00,WeatherDisplay:10.37,2013-11-21 14:48:00,
2013-11-21 09:53:00,33.4,30.0,30.36,SSW,196,5.8,5.8,87,0.00,CLR,,0.00,WeatherDisplay:10.37,2013-11-21 14:53:00,
2013-11-21 09:58:00,33.6,30.2,30.36,SE,144,5.8,5.8,87,0.00,CLR,,0.00,WeatherDisplay:10.37,2013-11-21 14:58:00,
2013-11-21 10:03:00,34.2,30.7,30.36,South,170,4.6,0.0,87,0.00,CLR,,0.00,WeatherDisplay:10.37,2013-11-21 15:03:00,
2013-11-21 10:08:00,35.1,31.6,30.36,SSE,160,5.8,5.8,87,0.00,CLR,,0.00,WeatherDisplay:10.37,2013-11-21 15:08:00,
2013-11-21 10:13:00,35.4,31.4,30.36,ESE,120,6.9,6.9,85,0.00,CLR,,0.00,WeatherDisplay:10.37,2013-11-21 15:13:00,
2013-11-21 10:18:00,35.4,31.1,30.36,SSE,161,8.1,8.1,84,0.00,CLR,,0.00,WeatherDisplay:10.37,2013-11-21 15:18:00,
2013-11-21 10:23:00,35.4,30.8,30.36,ESE,113,8.1,8.1,83,0.00,CLR,,0.00,WeatherDisplay:10.37,2013-11-21 15:23:00,
2013-11-21 10:28:00,35.4,30.5,30.36,South,185,8.0,8.0,82,0.00,CLR,,0.00,WeatherDisplay:10.37,2013-11-21 15:28:00,
2013-11-21 10:33:00,35.4,30.5,30.36,SSE,154,8.1,8.1,82,0.00,CLR,,0.00,WeatherDisplay:10.37,2013-11-21 15:33:00,
2013-11-21 10:38:00,35.6,30.6,30.36,SSE,159,5.8,5.8,82,0.00,CLR,,0.00,WeatherDisplay:10.37,2013-11-21 15:38:00,
2013-11-21 10:43:00,35.8,30.8,30.36,SE,125,8.1,8.1,82,0.00,CLR,,0.00,WeatherDisplay:10.37,2013-11-21 15:43:00,
2013-11-21 10:48:00,36.1,31.2,30.36,SSE,168,10.4,10.4,82,0.00,CLR,,0.00,WeatherDisplay:10.37,2013-11-21 15:48:00,
2013-11-21 10:53:00,36.3,31.0,30.36,SE,146,9.2,9.2,81,0.00,CLR,,0.00,WeatherDisplay:10.37,2013-11-21 15:53:00,
2013-11-21 10:58:00,36.3,31.0,30.36,SSE,162,8.1,8.1,81,0.00,CLR,,0.00,WeatherDisplay:10.37,2013-11-21 15:58:00,
2013-11-21 11:03:00,36.5,31.2,30.36,SSE,164,8.1,8.1,81,0.00,SCT,,0.00,WeatherDisplay:10.37,2013-11-21 16:03:00,
2013-11-21 11:08:00,36.7,31.1,30.36,South,187,5.8,5.8,80,0.00,SCT,,0.00,WeatherDisplay:10.37,2013-11-21 16:08:00,
2013-11-21 11:13:00,36.9,31.3,30.36,SSE,156,8.1,8.1,80,0.00,SCT,,0.00,WeatherDisplay:10.37,2013-11-21 16:13:00,
2013-11-21 11:18:00,37.0,31.4,30.36,SSW,209,8.1,8.1,80,0.00,SCT,,0.00,WeatherDisplay:10.37,2013-11-21 16:18:00,
2013-11-21 11:23:00,37.2,31.6,30.36,WSW,238,8.1,8.1,80,0.00,SCT,,0.00,WeatherDisplay:10.37,2013-11-21 16:23:00,
2013-11-21 11:28:00,37.6,31.7,30.36,SE,142,9.2,9.2,79,0.00,SCT,,0.00,WeatherDisplay:10.37,2013-11-21 16:28:00,
2013-11-21 11:33:00,37.9,32.0,30.36,SSE,156,5.8,6.3,79,0.00,SCT,,0.00,WeatherDisplay:10.37,2013-11-21 16:33:00,
2013-11-21 11:38:00,38.7,32.4,30.36,SSW,203,9.2,9.2,78,0.00,SCT,,0.00,WeatherDisplay:10.37,2013-11-21 16:38:00,
2013-11-21 11:43:00,39.4,33.1,30.36,East,97,8.1,8.1,78,0.00,SCT,,0.00,WeatherDisplay:10.37,2013-11-21 16:43:00,
2013-11-21 11:48:00,39.4,32.4,30.36,SE,142,5.8,5.8,76,0.00,SCT,,0.00,WeatherDisplay:10.37,2013-11-21 16:48:00,
2013-11-21 11:53:00,39.2,32.3,30.33,SSE,159,12.7,12.7,76,0.00,SCT,,0.00,WeatherDisplay:10.37,2013-11-21 16:53:00,
2013-11-21 11:58:00,38.8,31.9,30.33,SSE,164,9.2,9.2,76,0.00,SCT,,0.00,WeatherDisplay:10.37,2013-11-21 16:58:00,
2013-11-21 12:03:00,38.7,31.7,30.33,SSW,194,11.5,11.5,76,0.00,SCT,,0.00,WeatherDisplay:10.37,2013-11-21 17:03:00,
2013-11-21 12:08:00,38.7,31.7,30.33,SSE,155,8.1,8.1,76,0.00,CLR,,0.00,WeatherDisplay:10.37,2013-11-21 17:08:00,
2013-11-21 12:13:00,39.2,32.3,30.33,South,187,5.8,5.8,76,0.00,CLR,,0.00,WeatherDisplay:10.37,2013-11-21 17:13:00,
2013-11-21 12:18:00,39.6,32.6,30.33,SSE,159,5.4,5.4,76,0.00,CLR,,0.00,WeatherDisplay:10.37,2013-11-21 17:18:00,
2013-11-21 12:23:00,39.7,32.8,30.33,South,186,5.8,5.8,76,0.00,CLR,,0.00,WeatherDisplay:10.37,2013-11-21 17:23:00,
2013-11-21 12:28:00,40.5,33.5,30.33,SW,222,8.1,8.1,76,0.00,CLR,,0.00,WeatherDisplay:10.37,2013-11-21 17:28:00,
2013-11-21 12:33:00,40.6,33.7,30.33,South,177,10.4,10.4,76,0.00,CLR,,0.00,WeatherDisplay:10.37,2013-11-21 17:33:00,
2013-11-21 12:38:00,41.0,34.0,30.33,SSE,167,8.1,8.1,76,0.00,CLR,,0.00,WeatherDisplay:10.37,2013-11-21 17:38:00,
2013-11-21 12:43:00,40.8,32.8,30.33,SSE,148,6.9,6.9,73,0.00,CLR,,0.00,WeatherDisplay:10.37,2013-11-21 17:43:00,
2013-11-21 12:48:00,40.6,32.7,30.33,SSE,149,10.4,10.4,73,0.00,CLR,,0.00,WeatherDisplay:10.37,2013-11-21 17:48:00,
2013-11-21 12:53:00,40.8,32.8,30.33,South,169,8.1,8.1,73,0.00,CLR,,0.00,WeatherDisplay:10.37,2013-11-21 17:53:00,
2013-11-21 12:58:00,41.0,33.0,30.33,SSE,162,5.8,5.8,73,0.00,CLR,,0.00,WeatherDisplay:10.37,2013-11-21 17:58:00,
2013-11-21 13:03:00,41.0,33.0,30.33,South,175,5.8,5.8,73,0.00,FEW,,0.00,WeatherDisplay:10.37,2013-11-21 18:03:00,
2013-11-21 13:08:00,41.0,33.0,30.33,SSE,159,5.8,5.8,73,0.00,FEW,,0.00,WeatherDisplay:10.37,2013-11-21 18:08:00,
2013-11-21 13:13:00,41.0,33.0,30.33,ESE,115,10.4,10.4,73,0.00,FEW,,0.00,WeatherDisplay:10.37,2013-11-21 18:13:00,
2013-11-21 13:19:00,41.4,33.4,30.33,SSE,157,5.8,6.3,73,0.00,FEW,,0.00,WeatherDisplay:10.37,2013-11-21 18:19:00,
2013-11-21 13:23:00,41.5,33.5,30.30,SE,139,8.1,8.1,73,0.00,FEW,,0.00,WeatherDisplay:10.37,2013-11-21 18:23:00,
2013-11-21 13:29:00,41.5,33.5,30.30,SSE,165,5.8,5.8,73,0.00,FEW,,0.00,WeatherDisplay:10.37,2013-11-21 18:29:00,
2013-11-21 13:34:00,41.7,33.7,30.30,South,190,5.8,5.8,73,0.00,FEW,,0.00,WeatherDisplay:10.37,2013-11-21 18:34:00,
2013-11-21 13:39:00,42.1,34.0,30.30,SSE,150,8.1,8.1,73,0.00,FEW,,0.00,WeatherDisplay:10.37,2013-11-21 18:39:00,
2013-11-21 13:44:00,42.4,34.4,30.30,ESE,117,3.5,0.0,73,0.00,FEW,,0.00,WeatherDisplay:10.37,2013-11-21 18:44:00,
2013-11-21 13:49:00,42.8,34.7,30.30,SE,128,5.8,5.8,73,0.00,FEW,,0.00,WeatherDisplay:10.37,2013-11-21 18:49:00,
2013-11-21 13:54:00,42.8,34.7,30.30,SE,133,5.8,5.8,73,0.00,FEW,,0.00,WeatherDisplay:10.37,2013-11-21 18:54:00,
2013-11-21 13:59:00,42.8,34.7,30.30,East,89,5.8,5.8,73,0.00,FEW,,0.00,WeatherDisplay:10.37,2013-11-21 18:59:00,
2013-11-21 14:04:00,42.8,34.7,30.30,ESE,117,5.8,5.8,73,0.00,FEW,,0.00,WeatherDisplay:10.37,2013-11-21 19:04:00,
2013-11-21 14:09:00,42.8,34.7,30.30,SSE,156,5.8,5.8,73,0.00,FEW,,0.00,WeatherDisplay:10.37,2013-11-21 19:09:00,
2013-11-21 14:14:00,43.2,35.1,30.30,SSE,150,4.9,4.9,73,0.00,FEW,,0.00,WeatherDisplay:10.37,2013-11-21 19:14:00,
2013-11-21 14:19:00,43.7,35.6,30.30,SSE,149,8.1,8.1,73,0.00,FEW,,0.00,WeatherDisplay:10.37,2013-11-21 19:19:00,
2013-11-21 14:24:00,43.9,35.8,30.30,SSW,192,8.1,8.1,73,0.00,CLR,,0.00,WeatherDisplay:10.37,2013-11-21 19:24:00,
2013-11-21 14:29:00,43.9,35.8,30.30,ESE,108,6.9,6.9,73,0.00,CLR,,0.00,WeatherDisplay:10.37,2013-11-21 19:29:00,
2013-11-21 14:34:00,43.9,35.8,30.30,South,178,8.1,8.1,73,0.00,CLR,,0.00,WeatherDisplay:10.37,2013-11-21 19:34:00,
2013-11-21 14:39:00,43.9,35.8,30.30,South,169,8.1,8.1,73,0.00,CLR,,0.00,WeatherDisplay:10.37,2013-11-21 19:39:00,
2013-11-21 14:44:00,43.9,34.7,30.30,South,178,8.1,8.1,70,0.00,CLR,,0.00,WeatherDisplay:10.37,2013-11-21 19:44:00,
2013-11-21 14:49:00,44.2,36.1,30.30,South,182,9.2,9.2,73,0.00,CLR,,0.00,WeatherDisplay:10.37,2013-11-21 19:49:00,
2013-11-21 14:54:00,44.4,36.3,30.27,South,172,8.1,8.1,73,0.00,CLR,,0.00,WeatherDisplay:10.37,2013-11-21 19:54:00,
2013-11-21 14:59:00,44.6,35.4,30.27,South,182,5.8,5.8,70,0.00,CLR,,0.00,WeatherDisplay:10.37,2013-11-21 19:59:00,
2013-11-21 15:04:00,44.6,35.4,30.27,SSE,151,9.2,9.2,70,0.00,CLR,,0.00,WeatherDisplay:10.37,2013-11-21 20:04:00,
2013-11-21 15:09:00,44.6,35.4,30.30,SE,128,5.8,5.8,70,0.00,CLR,,0.00,WeatherDisplay:10.37,2013-11-21 20:09:00,
2013-11-21 15:14:00,44.4,35.2,30.30,SSE,160,5.8,5.8,70,0.00,CLR,,0.00,WeatherDisplay:10.37,2013-11-21 20:14:00,
2013-11-21 15:19:00,44.6,35.4,30.30,South,175,6.3,6.3,70,0.00,CLR,,0.00,WeatherDisplay:10.37,2013-11-21 20:19:00,
2013-11-21 15:24:00,44.6,35.4,30.30,ESE,118,5.8,5.8,70,0.00,CLR,,0.00,WeatherDisplay:10.37,2013-11-21 20:24:00,
2013-11-21 15:29:00,44.4,35.2,30.30,SE,140,9.2,9.2,70,0.00,CLR,,0.00,WeatherDisplay:10.37,2013-11-21 20:29:00,
2013-11-21 15:34:00,44.2,35.1,30.30,SE,143,5.8,5.8,70,0.00,CLR,,0.00,WeatherDisplay:10.37,2013-11-21 20:34:00,
2013-11-21 15:39:00,43.9,34.7,30.27,East,99,5.8,5.8,70,0.00,CLR,,0.00,WeatherDisplay:10.37,2013-11-21 20:39:00,
2013-11-21 15:44:00,43.5,34.4,30.27,ESE,108,6.9,6.9,70,0.00,CLR,,0.00,WeatherDisplay:10.37,2013-11-21 20:44:00,
2013-11-21 15:49:00,43.2,34.0,30.27,ESE,119,5.8,5.8,70,0.00,CLR,,0.00,WeatherDisplay:10.37,2013-11-21 20:49:00,
2013-11-21 15:54:00,42.8,34.7,30.27,East,94,5.8,5.8,73,0.00,CLR,,0.00,WeatherDisplay:10.37,2013-11-21 20:54:00,
2013-11-21 15:59:00,42.6,34.6,30.27,ESE,115,4.6,4.6,73,0.00,CLR,,0.00,WeatherDisplay:10.37,2013-11-21 20:59:00,
2013-11-21 16:04:00,42.4,34.4,30.27,SE,132,5.8,5.8,73,0.00,CLR,,0.00,WeatherDisplay:10.37,2013-11-21 21:04:00,
2013-11-21 16:09:00,42.4,34.4,30.27,SE,128,5.8,5.8,73,0.00,CLR,,0.00,WeatherDisplay:10.37,2013-11-21 21:09:00,
2013-11-21 16:14:00,41.9,33.9,30.27,ESE,119,5.8,5.8,73,0.00,CLR,,0.00,WeatherDisplay:10.37,2013-11-21 21:14:00,
2013-11-21 16:19:00,41.4,33.4,30.27,SE,127,5.8,5.8,73,0.00,CLR,,0.00,WeatherDisplay:10.37,2013-11-21 21:19:00,
2013-11-21 16:24:00,40.6,32.7,30.27,SE,137,3.5,3.5,73,0.00,CLR,,0.00,WeatherDisplay:10.37,2013-11-21 21:24:00,
2013-11-21 16:29:00,40.5,32.5,30.27,ESE,121,5.8,5.8,73,0.00,CLR,,0.00,WeatherDisplay:10.37,2013-11-21 21:29:00,
2013-11-21 16:34:00,40.3,32.3,30.27,SSE,149,5.8,5.8,73,0.00,CLR,,0.00,WeatherDisplay:10.37,2013-11-21 21:34:00,
2013-11-21 16:39:00,40.1,32.1,30.27,SE,129,4.6,4.6,73,0.00,CLR,,0.00,WeatherDisplay:10.37,2013-11-21 21:39:00,
2013-11-21 16:44:00,39.6,31.6,30.27,SSE,163,3.5,3.6,73,0.00,CLR,,0.00,WeatherDisplay:10.37,2013-11-21 21:44:00,
2013-11-21 16:49:00,39.2,32.3,30.27,SE,146,5.8,5.8,76,0.00,CLR,,0.00,WeatherDisplay:10.37,2013-11-21 21:49:00,
2013-11-21 16:54:00,38.8,31.9,30.27,SSE,156,5.8,5.8,76,0.00,CLR,,0.00,WeatherDisplay:10.37,2013-11-21 21:54:00,
2013-11-21 16:59:00,38.5,31.6,30.27,SSE,163,6.3,6.3,76,0.00,CLR,,0.00,WeatherDisplay:10.37,2013-11-21 21:59:00,
2013-11-21 17:04:00,38.3,32.0,30.27,SE,143,4.6,4.6,78,0.00,CLR,,0.00,WeatherDisplay:10.37,2013-11-21 22:04:00,
2013-11-21 17:09:00,38.1,31.9,30.30,SSE,166,5.8,5.8,78,0.00,CLR,,0.00,WeatherDisplay:10.37,2013-11-21 22:09:00,
2013-11-21 17:14:00,38.1,31.9,30.30,SE,141,5.8,5.8,78,0.00,CLR,,0.00,WeatherDisplay:10.37,2013-11-21 22:14:00,
2013-11-21 17:19:00,38.3,32.0,30.30,SSE,151,10.4,10.4,78,0.00,CLR,,0.00,WeatherDisplay:10.37,2013-11-21 22:19:00,
2013-11-21 17:24:00,38.7,32.7,30.30,SE,142,5.8,5.8,79,0.00,CLR,,0.00,WeatherDisplay:10.37,2013-11-21 22:24:00,
2013-11-21 17:29:00,38.5,32.2,30.30,SSE,149,3.6,4.0,78,0.00,CLR,,0.00,WeatherDisplay:10.37,2013-11-21 22:29:00,
2013-11-21 17:34:00,38.3,32.4,30.30,South,169,5.8,5.8,79,0.00,CLR,,0.00,WeatherDisplay:10.37,2013-11-21 22:34:00,
2013-11-21 17:39:00,38.5,32.5,30.27,SE,128,4.6,4.6,79,0.00,BKN,,0.00,WeatherDisplay:10.37,2013-11-21 22:39:00,
2013-11-21 17:44:00,38.5,32.5,30.27,SE,142,5.8,5.8,79,0.00,BKN,,0.00,WeatherDisplay:10.37,2013-11-21 22:44:00,
2013-11-21 17:49:00,38.3,32.4,30.27,SSE,147,5.8,5.8,79,0.00,BKN,,0.00,WeatherDisplay:10.37,2013-11-21 22:49:00,
2013-11-21 17:54:00,38.3,32.4,30.27,SE,128,5.8,5.8,79,0.00,BKN,,0.00,WeatherDisplay:10.37,2013-11-21 22:54:00,
2013-11-21 17:59:00,38.3,32.7,30.27,SE,144,5.8,5.8,80,0.00,BKN,,0.00,WeatherDisplay:10.37,2013-11-21 22:59:00,
2013-11-21 18:04:00,38.1,32.5,30.27,SE,146,5.8,5.8,80,0.00,SCT,,0.00,WeatherDisplay:10.37,2013-11-21 23:04:00,
2013-11-21 18:09:00,37.8,32.1,30.27,SE,142,3.5,3.5,80,0.00,SCT,,0.00,WeatherDisplay:10.37,2013-11-21 23:09:00,
2013-11-21 18:14:00,37.4,31.8,30.27,SE,124,5.8,5.8,80,0.00,SCT,,0.00,WeatherDisplay:10.37,2013-11-21 23:14:00,
2013-11-21 18:19:00,37.0,31.8,30.27,SE,127,5.8,5.8,81,0.00,SCT,,0.00,WeatherDisplay:10.37,2013-11-21 23:19:00,
2013-11-21 18:24:00,36.7,31.4,30.30,SSE,161,3.5,3.5,81,0.00,SCT,,0.00,WeatherDisplay:10.37,2013-11-21 23:24:00,
2013-11-21 18:29:00,36.3,31.4,30.30,SSE,165,4.9,4.9,82,0.00,SCT,,0.00,WeatherDisplay:10.37,2013-11-21 23:29:00,
2013-11-21 18:34:00,36.3,31.4,30.30,SE,145,5.8,5.8,82,0.00,SCT,,0.00,WeatherDisplay:10.37,2013-11-21 23:34:00,
2013-11-21 18:39:00,36.3,31.4,30.30,SE,135,5.8,5.8,82,0.00,SCT,,0.00,WeatherDisplay:10.37,2013-11-21 23:39:00,
2013-11-21 18:44:00,36.3,31.7,30.30,SE,141,3.5,3.5,83,0.00,SCT,,0.00,WeatherDisplay:10.37,2013-11-21 23:44:00,
2013-11-21 18:49:00,36.3,31.7,30.30,SE,142,3.5,3.5,83,0.00,SCT,,0.00,WeatherDisplay:10.37,2013-11-21 23:49:00,
2013-11-21 18:54:00,36.5,32.1,30.30,SSE,147,5.4,0.0,84,0.00,SCT,,0.00,WeatherDisplay:10.37,2013-11-21 23:54:00,
2013-11-21 18:59:00,36.5,32.4,30.30,SSE,162,3.5,3.5,85,0.00,SCT,,0.00,WeatherDisplay:10.37,2013-11-21 23:59:00,
2013-11-21 19:04:00,36.7,32.6,30.30,SSE,154,3.5,0.0,85,0.00,CLR,,0.00,WeatherDisplay:10.37,2013-11-22 00:04:00,
2013-11-21 19:09:00,36.7,32.6,30.30,SSE,155,2.3,0.0,85,0.00,CLR,,0.00,WeatherDisplay:10.37,2013-11-22 00:09:00,
2013-11-21 19:14:00,36.9,33.1,30.30,SSE,155,2.3,0.0,86,0.00,CLR,,0.00,WeatherDisplay:10.37,2013-11-22 00:14:00,
2013-11-21 19:19:00,36.9,33.1,30.30,ESE,111,3.5,3.5,86,0.00,CLR,,0.00,WeatherDisplay:10.37,2013-11-22 00:19:00,
2013-11-21 19:24:00,37.0,33.2,30.30,SSE,165,3.5,3.5,86,0.00,CLR,,0.00,WeatherDisplay:10.37,2013-11-22 00:24:00,
2013-11-21 19:29:00,37.2,33.4,30.30,ESE,116,3.5,3.5,86,0.00,CLR,,0.00,WeatherDisplay:10.37,2013-11-22 00:29:00,
2013-11-21 19:34:00,37.4,33.6,30.30,SE,134,3.5,3.5,86,0.00,CLR,,0.00,WeatherDisplay:10.37,2013-11-22 00:34:00,
2013-11-21 19:39:00,37.6,33.8,30.30,SSE,150,3.5,3.5,86,0.00,CLR,,0.00,WeatherDisplay:10.37,2013-11-22 00:39:00,
2013-11-21 19:44:00,37.6,33.8,30.30,ESE,122,2.7,2.7,86,0.00,CLR,,0.00,WeatherDisplay:10.37,2013-11-22 00:44:00,
2013-11-21 19:49:00,37.9,34.4,30.30,South,179,3.5,3.5,87,0.00,CLR,,0.00,WeatherDisplay:10.37,2013-11-22 00:49:00,
2013-11-21 19:54:00,38.1,34.6,30.30,SSE,159,5.8,5.8,87,0.00,CLR,,0.00,WeatherDisplay:10.37,2013-11-22 00:54:00,
2013-11-21 19:59:00,38.3,34.8,30.30,SSW,193,3.5,3.5,87,0.00,CLR,,0.00,WeatherDisplay:10.37,2013-11-22 00:59:00,
2013-11-21 20:05:00,38.5,34.9,30.30,SSW,194,3.5,3.5,87,0.00,OVC,,0.00,WeatherDisplay:10.37,2013-11-22 01:05:00,
2013-11-21 20:10:00,38.7,35.1,30.30,SSE,166,5.8,5.8,87,0.00,OVC,,0.00,WeatherDisplay:10.37,2013-11-22 01:10:00,
2013-11-21 20:15:00,39.0,35.5,30.30,SSW,192,5.8,5.8,87,0.00,OVC,,0.00,WeatherDisplay:10.37,2013-11-22 01:15:00,
2013-11-21 20:20:00,39.2,35.4,30.30,South,191,9.2,9.2,86,0.00,OVC,,0.00,WeatherDisplay:10.37,2013-11-22 01:20:00,
2013-11-21 20:25:00,40.1,36.2,30.27,SSE,147,8.1,8.1,86,0.00,OVC,,0.00,WeatherDisplay:10.37,2013-11-22 01:25:00,
2013-11-21 20:30:00,40.3,36.4,30.27,SSE,162,5.8,5.8,86,0.00,OVC,,0.00,WeatherDisplay:10.37,2013-11-22 01:30:00,
2013-11-21 20:35:00,40.3,36.4,30.27,SSE,166,3.6,3.6,86,0.00,OVC,,0.00,WeatherDisplay:10.37,2013-11-22 01:35:00,
2013-11-21 20:40:00,40.1,36.0,30.27,SE,128,5.4,0.0,85,0.00,OVC,,0.00,WeatherDisplay:10.37,2013-11-22 01:40:00,
2013-11-21 20:45:00,39.9,35.8,30.27,SE,145,4.6,4.6,85,0.00,OVC,,0.00,WeatherDisplay:10.37,2013-11-22 01:45:00,
2013-11-21 20:50:00,39.7,35.6,30.27,ESE,110,3.5,3.6,85,0.00,OVC,,0.00,WeatherDisplay:10.37,2013-11-22 01:50:00,
2013-11-21 20:55:00,39.6,35.1,30.27,SE,124,3.5,0.0,84,0.00,OVC,,0.00,WeatherDisplay:10.37,2013-11-22 01:55:00,
2013-11-21 21:00:00,39.4,34.9,30.27,SSE,164,3.6,3.6,84,0.00,OVC,,0.00,WeatherDisplay:10.37,2013-11-22 02:00:00,
2013-11-21 21:05:00,39.4,34.9,30.27,SSE,151,4.6,4.6,84,0.00,OVC,,0.00,WeatherDisplay:10.37,2013-11-22 02:05:00,
2013-11-21 21:08:00,39.4,34.6,30.27,South,185,3.5,3.5,83,0.00,OVC,,0.00,WeatherDisplay:10.37,2013-11-22 02:08:00,
2013-11-21 21:09:00,39.2,34.5,30.27,SSW,194,3.5,3.5,83,0.00,OVC,,0.00,WeatherDisplay:10.37,2013-11-22 02:09:00,
2013-11-21 21:14:00,39.2,34.8,30.27,South,183,0.0,0.0,84,0.00,OVC,,0.00,WeatherDisplay:10.37,2013-11-22 02:14:00,
2013-11-21 21:19:00,39.2,34.8,30.27,South,181,4.9,4.9,84,0.00,OVC,,0.00,WeatherDisplay:10.37,2013-11-22 02:19:00,
2013-11-21 21:24:00,39.2,34.8,30.27,SSE,162,3.5,3.5,84,0.00,OVC,,0.00,WeatherDisplay:10.37,2013-11-22 02:24:00,
2013-11-21 21:29:00,39.4,34.9,30.27,SSW,210,5.8,5.8,84,0.00,OVC,,0.00,WeatherDisplay:10.37,2013-11-22 02:29:00,
2013-11-21 21:34:00,39.6,35.1,30.27,South,188,5.8,5.8,84,0.00,OVC,,0.00,WeatherDisplay:10.37,2013-11-22 02:34:00,
2013-11-21 21:39:00,39.9,35.8,30.27,SSW,206,9.2,9.2,85,0.00,OVC,,0.00,WeatherDisplay:10.37,2013-11-22 02:39:00,
2013-11-21 21:44:00,40.6,36.5,30.27,SE,146,5.8,5.8,85,0.00,OVC,,0.00,WeatherDisplay:10.37,2013-11-22 02:44:00,
2013-11-21 21:49:00,41.2,37.0,30.27,SW,225,9.2,9.2,85,0.00,OVC,,0.00,WeatherDisplay:10.37,2013-11-22 02:49:00,
2013-11-21 21:54:00,41.7,37.5,30.27,SSW,211,8.1,8.1,85,0.00,OVC,,0.00,WeatherDisplay:10.37,2013-11-22 02:54:00,
2013-11-21 21:59:00,41.9,37.4,30.27,SSW,198,8.1,8.1,84,0.00,OVC,,0.00,WeatherDisplay:10.37,2013-11-22 02:59:00,
2013-11-21 22:04:00,42.1,37.6,30.27,SSE,154,6.3,6.3,84,0.00,OVC,,0.00,WeatherDisplay:10.37,2013-11-22 03:04:00,
2013-11-21 22:09:00,42.3,37.5,30.27,SW,229,6.9,6.9,83,0.00,OVC,,0.00,WeatherDisplay:10.37,2013-11-22 03:09:00,
2013-11-21 22:14:00,42.3,37.2,30.27,SW,214,6.9,6.9,82,0.00,OVC,,0.00,WeatherDisplay:10.37,2013-11-22 03:14:00,
2013-11-21 22:19:00,42.4,37.3,30.27,SW,222,3.5,3.5,82,0.00,OVC,,0.00,WeatherDisplay:10.37,2013-11-22 03:19:00,
2013-11-21 22:24:00,42.4,37.3,30.24,SSW,196,3.5,3.5,82,0.00,OVC,,0.00,WeatherDisplay:10.37,2013-11-22 03:24:00,
2013-11-21 22:29:00,42.4,37.3,30.24,SSW,204,5.8,5.8,82,0.00,OVC,,0.00,WeatherDisplay:10.37,2013-11-22 03:29:00,
2013-11-21 22:34:00,42.4,37.3,30.24,SW,227,5.8,5.8,82,0.00,OVC,,0.00,WeatherDisplay:10.37,2013-11-22 03:34:00,
2013-11-21 22:39:00,42.4,37.3,30.24,South,180,5.8,5.8,82,0.00,OVC,,0.00,WeatherDisplay:10.37,2013-11-22 03:39:00,
2013-11-21 22:44:00,42.4,37.3,30.24,SSW,192,3.5,3.5,82,0.00,OVC,,0.00,WeatherDisplay:10.37,2013-11-22 03:44:00,
2013-11-21 22:49:00,42.4,37.3,30.24,South,186,5.8,5.8,82,0.00,OVC,,0.00,WeatherDisplay:10.37,2013-11-22 03:49:00,
2013-11-21 22:54:00,42.4,37.3,30.24,South,176,3.5,3.5,82,0.00,OVC,,0.00,WeatherDisplay:10.37,2013-11-22 03:54:00,
2013-11-21 22:59:00,42.4,37.3,30.24,SSW,208,4.6,0.0,82,0.00,OVC,,0.00,WeatherDisplay:10.37,2013-11-22 03:59:00,
2013-11-21 23:04:00,42.4,37.3,30.24,SSW,198,5.8,5.8,82,0.00,OVC,,0.00,WeatherDisplay:10.37,2013-11-22 04:04:00,
2013-11-21 23:09:00,42.4,37.3,30.24,SW,217,5.8,5.8,82,0.00,OVC,,0.00,WeatherDisplay:10.37,2013-11-22 04:09:00,
2013-11-21 23:14:00,42.4,37.3,30.24,South,172,5.8,5.8,82,0.00,OVC,,0.00,WeatherDisplay:10.37,2013-11-22 04:14:00,
2013-11-21 23:19:00,42.4,37.3,30.24,SW,231,5.8,5.8,82,0.00,OVC,,0.00,WeatherDisplay:10.37,2013-11-22 04:19:00,
2013-11-21 23:24:00,42.4,37.3,30.24,SW,224,5.8,5.8,82,0.00,OVC,,0.00,WeatherDisplay:10.37,2013-11-22 04:24:00,
2013-11-21 23:29:00,42.3,37.2,30.24,SW,231,6.9,6.9,82,0.00,OVC,,0.00,WeatherDisplay:10.37,2013-11-22 04:29:00,
2013-11-21 23:34:00,42.3,37.2,30.24,SW,226,6.7,6.7,82,0.00,OVC,,0.00,WeatherDisplay:10.37,2013-11-22 04:34:00,
2013-11-21 23:39:00,42.3,37.2,30.24,WSW,237,5.8,5.8,82,0.00,OVC,,0.00,WeatherDisplay:10.37,2013-11-22 04:39:00,
2013-11-21 23:44:00,42.3,37.2,30.24,West,269,2.3,0.0,82,0.00,OVC,,0.00,WeatherDisplay:10.37,2013-11-22 04:44:00,
2013-11-21 23:49:00,42.1,37.0,30.24,SW,236,4.6,4.6,82,0.00,OVC,,0.00,WeatherDisplay:10.37,2013-11-22 04:49:00,
2013-11-21 23:54:00,41.9,36.8,30.24,SSW,196,3.5,3.5,82,0.00,OVC,,0.00,WeatherDisplay:10.37,2013-11-22 04:54:00,
2013-11-21 23:59:00,41.5,36.8,30.24,South,177,3.5,3.5,83,0.00,OVC,,0.00,WeatherDisplay:10.37,2013-11-22 04:59:00,